createdAt,value
2018-11-27T00:01:12.066Z,40.63
2018-11-27T00:03:46.049Z,40.67
2018-11-27T00:06:15.797Z,44.80
2018-11-27T00:08:45.388Z,41.53
2018-11-27T00:11:14.995Z,30.23
2018-11-27T00:13:44.396Z,38.13
2018-11-27T00:16:14.019Z,43.80
2018-11-27T00:18:43.511Z,36.13
2018-11-27T00:21:13.424Z,37.97
2018-11-27T00:23:43.235Z,40.63
2018-11-27T00:26:13.264Z,40.00
2018-11-27T00:28:43.180Z,34.87
2018-11-27T00:31:13.021Z,31.57
2018-11-27T00:33:42.810Z,48.40
2018-11-27T00:36:12.713Z,39.10
2018-11-27T00:38:42.313Z,36.87
2018-11-27T00:41:12.331Z,33.90
2018-11-27T00:43:42.167Z,32.57
2018-11-27T00:46:12.587Z,37.30
2018-11-27T00:48:42.475Z,31.30
2018-11-27T00:51:12.390Z,27.07
2018-11-27T00:53:42.403Z,30.60
2018-11-27T00:56:12.227Z,30.77
2018-11-27T00:58:42.267Z,29.30
2018-11-27T01:01:12.663Z,29.83
2018-11-27T01:03:42.908Z,33.40
2018-11-27T01:06:12.817Z,32.27
2018-11-27T01:08:43.037Z,29.63
2018-11-27T01:11:12.972Z,29.77
2018-11-27T01:13:43.272Z,29.67
2018-11-27T01:16:14.316Z,30.40
2018-11-27T01:18:44.328Z,27.70
2018-11-27T01:21:14.237Z,27.13
2018-11-27T01:23:44.259Z,27.30
2018-11-27T01:26:14.280Z,27.37
2018-11-27T01:28:44.273Z,26.47
2018-11-27T01:31:14.416Z,27.60
2018-11-27T01:33:45.557Z,27.17
2018-11-27T01:36:15.990Z,24.47
2018-11-27T01:38:45.992Z,31.07
2018-11-27T01:41:15.918Z,31.30
2018-11-27T01:43:45.804Z,28.30
2018-11-27T01:46:15.949Z,30.00
2018-11-27T01:48:46.028Z,28.73
2018-11-27T01:51:15.980Z,28.03
2018-11-27T01:53:45.894Z,23.83
2018-11-27T01:56:16.401Z,27.83
2018-11-27T01:58:47.338Z,27.50
2018-11-27T02:01:17.148Z,25.90
2018-11-27T02:03:47.472Z,26.00
2018-11-27T02:06:17.609Z,27.00
2018-11-27T02:08:47.713Z,30.30
2018-11-27T02:11:17.422Z,30.43
2018-11-27T02:13:47.172Z,27.07
2018-11-27T02:16:17.370Z,28.40
2018-11-27T02:18:47.891Z,27.47
2018-11-27T02:21:18.305Z,28.43
2018-11-27T02:23:48.022Z,24.43
2018-11-27T02:26:18.253Z,26.83
2018-11-27T02:28:48.357Z,30.13
2018-11-27T02:31:18.266Z,27.13
2018-11-27T02:33:48.492Z,29.27
2018-11-27T02:36:18.102Z,25.67
2018-11-27T02:38:48.238Z,22.07
2018-11-27T02:41:18.852Z,29.23
2018-11-27T02:43:48.862Z,25.77
2018-11-27T02:46:18.897Z,24.47
2018-11-27T02:48:48.918Z,25.93
2018-11-27T02:51:18.930Z,25.27
2018-11-27T02:53:48.851Z,24.87
2018-11-27T02:56:18.857Z,24.33
2018-11-27T02:58:48.975Z,24.87
2018-11-27T03:01:18.879Z,23.77
2018-11-27T03:03:49.023Z,28.63
2018-11-27T03:06:18.942Z,27.97
2018-11-27T03:08:49.149Z,27.47
2018-11-27T03:11:19.278Z,25.23
2018-11-27T03:13:49.375Z,27.20
2018-11-27T03:16:19.286Z,26.67
2018-11-27T03:18:50.427Z,24.07
2018-11-27T03:21:20.236Z,31.83
2018-11-27T03:23:50.391Z,25.40
2018-11-27T03:26:20.272Z,28.10
2018-11-27T03:28:50.391Z,28.83
2018-11-27T03:31:20.307Z,28.33
2018-11-27T03:33:50.229Z,27.13
2018-11-27T03:36:20.341Z,27.37
2018-11-27T03:38:57.432Z,27.07
2018-11-27T03:41:27.769Z,28.03
2018-11-27T03:43:57.877Z,27.63
2018-11-27T03:46:29.825Z,25.23
2018-11-27T03:48:59.859Z,25.73
2018-11-27T03:51:29.979Z,30.50
2018-11-27T03:54:00.075Z,26.93
2018-11-27T03:56:30.396Z,25.70
2018-11-27T03:59:00.450Z,44.33
2018-11-27T04:01:30.568Z,46.83
2018-11-27T04:04:00.672Z,65.70
2018-11-27T04:06:30.992Z,38.87
2018-11-27T04:09:00.787Z,95.97
2018-11-27T04:11:30.950Z,250.30
2018-11-27T04:14:00.827Z,75.13
2018-11-27T04:16:30.838Z,99.10
2018-11-27T04:19:01.173Z,33.00
2018-11-27T04:21:32.105Z,119.40
2018-11-27T04:24:02.423Z,30.87
2018-11-27T04:26:32.751Z,27.33
2018-11-27T04:29:03.195Z,54.03
2018-11-27T04:31:33.404Z,34.47
2018-11-27T04:34:04.553Z,148.40
2018-11-27T04:36:35.601Z,28.10
2018-11-27T04:39:08.356Z,35.77
2018-11-27T04:41:39.034Z,57.87
2018-11-27T04:44:09.430Z,31.43
2018-11-27T04:46:40.173Z,27.60
2018-11-27T04:49:10.486Z,96.77
2018-11-27T04:51:43.151Z,57.77
2018-11-27T04:54:13.501Z,33.47
2018-11-27T04:56:45.243Z,84.57
2018-11-27T04:59:15.381Z,30.07
2018-11-27T05:01:45.160Z,26.13
2018-11-27T05:04:15.085Z,33.63
2018-11-27T05:06:46.424Z,42.70
2018-11-27T05:09:16.336Z,32.80
2018-11-27T05:11:46.152Z,32.30
2018-11-27T05:14:16.183Z,43.87
2018-11-27T05:16:46.182Z,51.77
2018-11-27T05:19:16.303Z,26.63
2018-11-27T05:21:46.321Z,38.77
2018-11-27T05:24:16.024Z,33.47
2018-11-27T05:26:46.041Z,28.30
2018-11-27T05:29:15.870Z,37.17
2018-11-27T05:31:45.875Z,31.07
2018-11-27T05:34:15.898Z,32.73
2018-11-27T05:36:45.702Z,32.73
2018-11-27T05:39:15.925Z,29.67
2018-11-27T05:41:46.375Z,32.53
2018-11-27T05:44:16.300Z,36.23
2018-11-27T05:46:46.486Z,26.13
2018-11-27T05:49:17.032Z,32.90
2018-11-27T05:51:46.938Z,32.50
2018-11-27T05:54:17.355Z,32.80
2018-11-27T05:56:47.579Z,35.23
2018-11-27T05:59:17.692Z,31.67
2018-11-27T06:01:48.031Z,33.23
2018-11-27T06:04:18.373Z,32.20
2018-11-27T06:06:48.453Z,45.20
2018-11-27T06:09:19.006Z,34.90
2018-11-27T06:11:49.345Z,50.23
2018-11-27T06:14:19.965Z,36.10
2018-11-27T06:16:50.275Z,42.23
2018-11-27T06:19:20.383Z,33.40
2018-11-27T06:21:50.530Z,33.10
2018-11-27T06:24:20.527Z,31.57
2018-11-27T06:26:51.382Z,32.77
2018-11-27T06:29:22.819Z,38.97
2018-11-27T06:31:53.151Z,33.43
2018-11-27T06:34:22.944Z,31.10
2018-11-27T06:36:53.978Z,37.57
2018-11-27T06:39:23.807Z,34.33
2018-11-27T06:41:54.033Z,32.47
2018-11-27T06:44:25.028Z,30.87
2018-11-27T06:46:55.191Z,38.97
2018-11-27T06:49:24.910Z,45.00
2018-11-27T06:51:54.803Z,32.90
2018-11-27T06:54:24.710Z,35.10
2018-11-27T06:56:54.738Z,37.17
2018-11-27T06:59:24.869Z,38.97
2018-11-27T07:01:54.248Z,39.20
2018-11-27T07:04:24.391Z,44.80
2018-11-27T07:06:54.397Z,37.87
2018-11-27T07:09:24.398Z,43.33
2018-11-27T07:11:54.519Z,40.17
2018-11-27T07:14:24.858Z,47.33
2018-11-27T07:16:54.888Z,44.60
2018-11-27T07:19:24.894Z,57.77
2018-11-27T07:21:55.013Z,49.33
2018-11-27T07:24:24.917Z,45.50
2018-11-27T07:26:54.420Z,50.97
2018-11-27T07:29:24.529Z,43.60
2018-11-27T07:31:54.359Z,51.17
2018-11-27T07:34:24.032Z,48.40
2018-11-27T07:36:54.390Z,52.13
2018-11-27T07:39:24.211Z,48.60
2018-11-27T07:41:53.810Z,49.63
2018-11-27T07:44:23.500Z,47.53
2018-11-27T07:46:53.211Z,51.03
2018-11-27T07:49:23.131Z,51.70
2018-11-27T07:51:53.651Z,53.73
2018-11-27T07:54:23.780Z,50.90
2018-11-27T07:56:53.482Z,49.67
2018-11-27T07:59:23.500Z,49.67
2018-11-27T08:01:54.020Z,49.20
2018-11-27T08:04:23.734Z,50.33
2018-11-27T08:06:53.471Z,52.47
2018-11-27T08:09:27.112Z,45.80
2018-11-27T08:11:53.051Z,73.77
2018-11-27T08:14:22.890Z,50.90
2018-11-27T08:16:55.764Z,47.47
2018-11-27T08:19:25.471Z,49.63
2018-11-27T08:21:55.090Z,42.90
2018-11-27T08:24:24.811Z,63.87
2018-11-27T08:26:54.502Z,47.07
2018-11-27T08:29:24.205Z,52.50
2018-11-27T08:31:54.031Z,50.77
2018-11-27T08:34:23.538Z,50.47
2018-11-27T08:36:53.033Z,49.43
2018-11-27T08:39:22.836Z,70.50
2018-11-27T08:41:52.773Z,57.53
2018-11-27T08:44:22.470Z,57.87
2018-11-27T08:46:52.028Z,43.77
2018-11-27T08:49:21.578Z,51.60
2018-11-27T08:51:51.310Z,47.47
2018-11-27T08:54:21.099Z,45.37
2018-11-27T08:56:51.041Z,47.97
2018-11-27T08:59:20.953Z,48.17
2018-11-27T09:01:50.742Z,43.00
2018-11-27T09:04:20.031Z,45.87
2018-11-27T09:06:49.770Z,54.50
2018-11-27T09:09:19.661Z,72.77
2018-11-27T09:11:49.261Z,55.03
2018-11-27T09:14:19.020Z,61.07
2018-11-27T09:16:48.911Z,45.20
2018-11-27T09:19:18.697Z,48.73
2018-11-27T09:21:48.530Z,57.37
2018-11-27T09:24:18.886Z,43.20
2018-11-27T09:26:48.663Z,45.30
2018-11-27T09:29:18.558Z,54.03
2018-11-27T09:31:48.475Z,51.77
2018-11-27T09:34:18.798Z,45.07
2018-11-27T09:36:48.830Z,34.53
2018-11-27T09:39:18.419Z,48.50
2018-11-27T09:41:47.952Z,40.00
2018-11-27T09:44:17.641Z,38.37
2018-11-27T09:46:47.352Z,32.77
2018-11-27T09:49:17.260Z,43.80
2018-11-27T09:51:46.972Z,32.60
2018-11-27T09:54:16.582Z,51.77
2018-11-27T09:56:46.072Z,72.97
2018-11-27T09:59:16.010Z,57.40
2018-11-27T10:01:47.136Z,41.33
2018-11-27T10:04:16.845Z,36.97
2018-11-27T10:06:46.771Z,30.90
2018-11-27T10:09:16.575Z,31.40
2018-11-27T10:11:46.020Z,28.30
2018-11-27T10:14:16.011Z,32.43
2018-11-27T10:16:45.814Z,29.10
2018-11-27T10:19:15.931Z,32.27
2018-11-27T10:21:45.330Z,25.43
2018-11-27T10:24:15.031Z,29.37
2018-11-27T10:26:45.664Z,27.60
2018-11-27T10:29:15.591Z,26.47
2018-11-27T10:31:46.414Z,28.23
2018-11-27T10:34:16.630Z,28.00
2018-11-27T10:36:46.571Z,27.23
2018-11-27T10:39:16.592Z,28.13
2018-11-27T10:41:47.021Z,30.87
2018-11-27T10:44:17.523Z,49.03
2018-11-27T10:46:47.240Z,29.67
2018-11-27T10:49:16.842Z,24.30
2018-11-27T10:51:46.651Z,30.97
2018-11-27T10:54:16.462Z,24.07
2018-11-27T10:56:45.971Z,26.00
2018-11-27T10:59:15.676Z,28.27
2018-11-27T11:01:49.912Z,33.33
2018-11-27T11:04:19.612Z,27.43
2018-11-27T11:06:49.106Z,27.77
2018-11-27T11:09:19.031Z,30.70
2018-11-27T11:11:48.415Z,29.17
2018-11-27T11:14:18.498Z,30.90
2018-11-27T11:16:47.843Z,30.80
2018-11-27T11:19:18.451Z,44.23
2018-11-27T11:21:47.459Z,33.20
2018-11-27T11:24:17.063Z,31.63
2018-11-27T11:26:46.992Z,30.67
2018-11-27T11:29:16.901Z,28.07
2018-11-27T11:31:46.502Z,30.40
2018-11-27T11:34:16.519Z,33.40
2018-11-27T11:36:46.452Z,25.27
2018-11-27T11:39:16.372Z,28.10
2018-11-27T11:41:46.033Z,26.37
2018-11-27T11:44:15.869Z,28.80
2018-11-27T11:46:45.269Z,28.60
2018-11-27T11:49:14.977Z,28.90
2018-11-27T11:51:44.393Z,23.30
2018-11-27T11:54:14.398Z,21.37
2018-11-27T11:56:44.002Z,24.50
2018-11-27T11:59:13.522Z,22.53
2018-11-27T12:01:43.532Z,22.70
2018-11-27T12:04:13.852Z,22.23
2018-11-27T12:06:43.770Z,25.33
2018-11-27T12:09:13.994Z,25.70
2018-11-27T12:11:44.936Z,40.40
2018-11-27T12:14:14.651Z,42.17
2018-11-27T12:16:44.671Z,39.70
2018-11-27T12:19:14.374Z,47.40
2018-11-27T12:21:43.895Z,25.80
2018-11-27T12:24:13.591Z,22.23
2018-11-27T12:26:43.892Z,23.57
2018-11-27T12:29:13.810Z,24.57
2018-11-27T12:31:43.521Z,24.93
2018-11-27T12:34:15.071Z,28.17
2018-11-27T12:36:45.611Z,30.67
2018-11-27T12:39:16.029Z,30.87
2018-11-27T12:41:46.472Z,31.17
2018-11-27T12:44:16.894Z,30.70
2018-11-27T12:46:47.011Z,37.40
2018-11-27T12:49:16.931Z,40.77
2018-11-27T12:51:46.520Z,34.23
2018-11-27T12:54:16.941Z,37.77
2018-11-27T12:56:46.671Z,34.80
2018-11-27T12:59:16.461Z,38.53
2018-11-27T13:01:46.387Z,37.23
2018-11-27T13:04:16.307Z,42.60
2018-11-27T13:06:46.428Z,38.73
2018-11-27T13:09:16.834Z,33.30
2018-11-27T13:11:46.447Z,39.53
2018-11-27T13:14:16.247Z,34.53
2018-11-27T13:16:46.387Z,36.40
2018-11-27T13:19:16.048Z,36.03
2018-11-27T13:21:45.896Z,106.70
2018-11-27T13:24:15.907Z,37.23
2018-11-27T13:26:45.411Z,38.60
2018-11-27T13:29:14.917Z,38.80
2018-11-27T13:31:44.836Z,35.10
2018-11-27T13:34:15.460Z,37.77
2018-11-27T13:36:45.188Z,33.53
2018-11-27T13:39:19.070Z,33.20
2018-11-27T13:41:48.785Z,32.40
2018-11-27T13:44:19.016Z,32.00
2018-11-27T13:46:49.125Z,32.50
2018-11-27T13:49:21.096Z,31.93
2018-11-27T13:51:55.216Z,37.90
2018-11-27T13:54:38.550Z,29.77
2018-11-27T13:57:18.282Z,48.17
2018-11-27T13:59:55.567Z,29.30
2018-11-27T14:02:43.313Z,33.60
2018-11-27T14:05:20.574Z,30.57
2018-11-27T14:07:58.380Z,29.03
2018-11-27T14:10:32.795Z,32.67
2018-11-27T14:13:04.043Z,30.77
2018-11-27T14:15:46.872Z,37.53
2018-11-27T14:18:17.306Z,30.10
2018-11-27T14:20:47.194Z,38.60
2018-11-27T14:23:17.020Z,30.73
2018-11-27T14:25:46.727Z,33.63
2018-11-27T14:28:16.735Z,31.67
2018-11-27T14:30:46.332Z,37.37
2018-11-27T14:33:16.561Z,33.17
2018-11-27T14:35:46.287Z,42.77
2018-11-27T14:38:16.021Z,39.37
2018-11-27T14:40:45.794Z,37.93
2018-11-27T14:43:15.815Z,35.13
2018-11-27T14:45:45.735Z,39.53
2018-11-27T14:48:15.864Z,38.60
2018-11-27T14:50:46.564Z,54.37
2018-11-27T14:53:17.025Z,38.17
2018-11-27T14:55:47.320Z,43.60
2018-11-27T14:58:17.145Z,33.80
2018-11-27T15:00:47.255Z,40.23
2018-11-27T15:03:17.387Z,37.00
2018-11-27T15:05:47.407Z,40.07
2018-11-27T15:08:17.619Z,43.50
2018-11-27T15:10:47.734Z,51.10
2018-11-27T15:13:17.350Z,53.93
2018-11-27T15:15:47.770Z,62.73
2018-11-27T15:18:17.576Z,54.93
2018-11-27T15:20:48.213Z,50.00
2018-11-27T15:23:18.943Z,60.57
2018-11-27T15:25:49.021Z,63.77
2018-11-27T15:28:18.796Z,61.43
2018-11-27T15:30:50.221Z,64.13
2018-11-27T15:33:20.764Z,73.87
2018-11-27T15:35:50.662Z,74.70
2018-11-27T15:38:20.581Z,71.03
2018-11-27T15:40:50.902Z,87.27
2018-11-27T15:43:23.430Z,82.40
2018-11-27T15:45:54.424Z,81.57
2018-11-27T15:48:25.023Z,114.37
2018-11-27T15:50:56.397Z,89.33
2018-11-27T15:53:26.821Z,99.70
2018-11-27T15:55:58.182Z,84.67
2018-11-27T15:58:28.918Z,79.30
2018-11-27T16:01:00.374Z,81.60
2018-11-27T16:03:31.425Z,70.43
2018-11-27T16:06:01.967Z,57.80
2018-11-27T16:08:34.837Z,60.47
2018-11-27T16:11:07.310Z,71.75
2018-11-27T16:13:37.414Z,64.10
2018-11-27T16:16:07.463Z,63.37
2018-11-27T16:18:37.031Z,72.07
2018-11-27T16:21:06.741Z,69.63
2018-11-27T16:23:36.743Z,61.13
2018-11-27T16:26:06.470Z,61.87
2018-11-27T16:28:36.376Z,67.57
2018-11-27T16:31:07.423Z,59.90
2018-11-27T16:33:37.656Z,63.10
2018-11-27T16:36:07.873Z,56.40
2018-11-27T16:38:40.067Z,59.73
2018-11-27T16:41:07.374Z,58.40
2018-11-27T16:43:37.181Z,52.17
2018-11-27T16:46:07.422Z,57.43
2018-11-27T16:48:37.223Z,59.83
2018-11-27T16:51:07.342Z,81.27
2018-11-27T16:53:41.054Z,61.37
2018-11-27T16:56:12.098Z,62.23
2018-11-27T16:58:42.031Z,69.90
2018-11-27T17:01:12.038Z,62.07
2018-11-27T17:03:42.343Z,61.97
2018-11-27T17:06:12.350Z,64.87
2018-11-27T17:08:42.376Z,65.60
2018-11-27T17:11:12.293Z,59.27
2018-11-27T17:13:42.094Z,62.30
2018-11-27T17:16:11.814Z,70.13
2018-11-27T17:18:41.625Z,70.17
2018-11-27T17:21:11.742Z,78.73
2018-11-27T17:23:42.181Z,81.53
2018-11-27T17:26:12.294Z,75.57
2018-11-27T17:28:42.094Z,74.37
2018-11-27T17:31:12.014Z,81.13
2018-11-27T17:33:43.254Z,86.47
2018-11-27T17:36:13.301Z,79.90
2018-11-27T17:38:43.022Z,80.50
2018-11-27T17:41:13.214Z,88.00
2018-11-27T17:43:43.338Z,65.73
2018-11-27T17:46:13.547Z,61.90
2018-11-27T17:48:43.574Z,65.30
2018-11-27T17:51:14.405Z,65.70
2018-11-27T17:53:44.604Z,76.33
2018-11-27T17:56:14.950Z,71.03
2018-11-27T17:58:44.775Z,62.07
2018-11-27T18:01:14.686Z,55.70
2018-11-27T18:03:44.884Z,61.43
2018-11-27T18:06:14.902Z,53.73
2018-11-27T18:08:44.814Z,55.97
2018-11-27T18:11:15.056Z,57.67
2018-11-27T18:13:45.345Z,54.33
2018-11-27T18:16:15.417Z,56.97
2018-11-27T18:18:45.495Z,63.83
2018-11-27T18:21:29.964Z,57.17
2018-11-27T18:24:00.382Z,57.03
2018-11-27T18:26:30.417Z,55.10
2018-11-27T18:29:00.534Z,60.90
2018-11-27T18:31:30.624Z,58.70
2018-11-27T18:34:00.854Z,50.17
2018-11-27T18:36:30.774Z,57.83
2018-11-27T18:39:01.300Z,64.30
2018-11-27T18:41:39.066Z,53.80
2018-11-27T18:44:12.384Z,52.83
2018-11-27T18:46:42.614Z,53.83
2018-11-27T18:49:12.933Z,57.23
2018-11-27T18:51:43.574Z,137.90
2018-11-27T18:54:13.614Z,66.10
2018-11-27T18:56:43.496Z,52.90
2018-11-27T18:59:14.056Z,61.37
2018-11-27T19:01:43.862Z,54.00
2018-11-27T19:04:13.862Z,51.40
2018-11-27T19:06:45.535Z,53.20
2018-11-27T19:09:15.404Z,55.63
2018-11-27T19:12:00.694Z,55.50
2018-11-27T19:14:30.902Z,56.77
2018-11-27T19:17:02.044Z,59.67
2018-11-27T19:22:09.672Z,56.17
2018-11-27T19:24:39.577Z,59.60
2018-11-27T19:27:13.413Z,65.20
2018-11-27T19:29:43.282Z,59.77
2018-11-27T19:32:13.824Z,54.20
2018-11-27T19:34:46.494Z,52.17
2018-11-27T19:37:18.263Z,46.57
2018-11-27T19:39:48.293Z,62.87
2018-11-27T19:42:19.013Z,62.03
2018-11-27T19:44:49.455Z,65.90
2018-11-27T19:47:25.934Z,70.60
2018-11-27T19:49:57.262Z,74.20
2018-11-27T19:52:27.820Z,80.93
2018-11-27T19:54:58.624Z,91.73
2018-11-27T19:57:29.053Z,94.40
2018-11-27T19:59:59.298Z,94.93
2018-11-27T20:02:29.597Z,96.13
2018-11-27T20:04:59.605Z,79.93
2018-11-27T20:07:29.854Z,94.77
2018-11-27T20:10:00.173Z,85.40
2018-11-27T20:12:31.615Z,79.33
2018-11-27T20:15:01.419Z,78.00
2018-11-27T20:17:31.524Z,73.30
2018-11-27T20:20:01.574Z,72.90
2018-11-27T20:22:31.695Z,84.27
2018-11-27T20:25:02.016Z,77.47
2018-11-27T20:27:31.934Z,80.10
2018-11-27T20:30:01.805Z,81.57
2018-11-27T20:32:33.965Z,91.00
2018-11-27T20:35:01.844Z,84.53
2018-11-27T20:37:32.284Z,89.63
2018-11-27T20:40:03.014Z,84.60
2018-11-27T20:42:33.255Z,85.67
2018-11-27T20:45:03.109Z,75.23
2018-11-27T20:47:32.879Z,84.40
2018-11-27T20:50:03.384Z,87.00
2018-11-27T20:52:34.221Z,85.37
2018-11-27T20:55:04.357Z,84.80
2018-11-27T20:57:34.441Z,98.77
2018-11-27T21:00:05.038Z,82.00
2018-11-27T21:02:35.013Z,85.73
2018-11-27T21:05:05.331Z,84.60
2018-11-27T21:07:35.742Z,80.60
2018-11-27T21:10:07.303Z,88.10
2018-11-27T21:12:37.334Z,82.27
2018-11-27T21:15:09.214Z,89.10
2018-11-27T21:17:39.333Z,86.20
2018-11-27T21:20:10.343Z,84.13
2018-11-27T21:22:40.262Z,80.67
2018-11-27T21:25:14.693Z,80.87
2018-11-27T21:27:45.403Z,82.57
2018-11-27T21:30:15.925Z,85.07
2018-11-27T21:32:46.053Z,79.40
2018-11-27T21:35:41.163Z,79.30
2018-11-27T21:38:11.372Z,76.03
2018-11-27T21:40:46.213Z,74.37
2018-11-27T21:43:29.449Z,75.57
2018-11-27T21:45:59.453Z,70.63
2018-11-27T21:48:29.462Z,71.90
2018-11-27T21:51:03.562Z,77.47
2018-11-27T21:53:33.901Z,79.97
2018-11-27T21:56:04.883Z,69.73
2018-11-27T21:58:35.461Z,72.10
2018-11-27T22:01:07.853Z,68.73
2018-11-27T22:03:39.540Z,74.33
2018-11-27T22:06:10.046Z,73.57
2018-11-27T22:08:49.694Z,71.67
2018-11-27T22:11:20.213Z,63.00
2018-11-27T22:13:51.253Z,77.17
2018-11-27T22:16:21.592Z,77.87
2018-11-27T22:18:52.037Z,70.80
2018-11-27T22:21:22.921Z,69.30
2018-11-27T22:23:53.373Z,70.77
2018-11-27T22:26:24.023Z,66.03
2018-11-27T22:28:57.496Z,66.63
2018-11-27T22:31:27.700Z,62.73
2018-11-27T22:33:58.433Z,61.47
2018-11-27T22:36:28.967Z,62.17
2018-11-27T22:38:59.193Z,69.33
2018-11-27T22:41:30.522Z,79.17
2018-11-27T22:44:00.752Z,96.23
2018-11-27T22:46:30.864Z,120.87
2018-11-27T22:49:00.377Z,109.30
2018-11-27T22:51:30.383Z,76.23
2018-11-27T22:54:01.117Z,82.30
2018-11-27T22:56:32.362Z,73.13
2018-11-27T22:59:02.686Z,71.47
2018-11-27T23:01:36.387Z,74.07
2018-11-27T23:04:07.652Z,82.43
2018-11-27T23:06:38.261Z,79.90
2018-11-27T23:09:10.139Z,93.10
2018-11-27T23:11:40.559Z,98.37
2018-11-27T23:14:10.781Z,94.53
2018-11-27T23:16:41.504Z,87.40
2018-11-27T23:19:11.440Z,74.90
2018-11-27T23:21:41.910Z,94.77
2018-11-27T23:24:12.820Z,88.37
2018-11-27T23:26:43.005Z,90.17
2018-11-27T23:29:13.041Z,80.60
2018-11-27T23:31:44.366Z,86.63
2018-11-27T23:34:14.408Z,82.77
2018-11-27T23:36:44.920Z,78.90
2018-11-27T23:39:14.863Z,73.17
2018-11-27T23:41:44.960Z,81.40
2018-11-27T23:44:15.171Z,82.17
2018-11-27T23:46:46.419Z,85.40
2018-11-27T23:49:16.446Z,77.27
2018-11-27T23:51:46.258Z,81.63
2018-11-27T23:54:16.574Z,73.07
2018-11-27T23:56:48.855Z,74.93
2018-11-27T23:59:16.490Z,72.23
